sensor_id;sensor_type;location;lat;lon;timestamp;P1;durP1;ratioP1;P2;durP2;ratioP2
35223;SDS011;21367;51.930;8.112;2022-10-26T00:02:11;26.83;;;11.32;;
35223;SDS011;21367;51.930;8.112;2022-10-26T00:07:17;22.48;;;10.20;;
35223;SDS011;21367;51.930;8.112;2022-10-26T00:12:21;22.23;;;9.27;;
35223;SDS011;21367;51.930;8.112;2022-10-26T00:17:25;24.00;;;10.18;;
35223;SDS011;21367;51.930;8.112;2022-10-26T00:22:31;21.05;;;11.20;;
35223;SDS011;21367;51.930;8.112;2022-10-26T00:27:35;19.85;;;10.68;;
35223;SDS011;21367;51.930;8.112;2022-10-26T00:32:39;22.00;;;10.82;;
35223;SDS011;21367;51.930;8.112;2022-10-26T00:37:46;26.77;;;12.57;;
35223;SDS011;21367;51.930;8.112;2022-10-26T00:42:50;23.52;;;12.73;;
35223;SDS011;21367;51.930;8.112;2022-10-26T00:47:55;22.50;;;10.70;;
35223;SDS011;21367;51.930;8.112;2022-10-26T00:53:04;21.73;;;11.70;;
35223;SDS011;21367;51.930;8.112;2022-10-26T00:58:10;25.88;;;12.25;;
35223;SDS011;21367;51.930;8.112;2022-10-26T01:03:14;21.40;;;12.20;;
35223;SDS011;21367;51.930;8.112;2022-10-26T01:08:21;19.25;;;10.38;;
35223;SDS011;21367;51.930;8.112;2022-10-26T01:13:28;20.90;;;10.38;;
35223;SDS011;21367;51.930;8.112;2022-10-26T01:18:37;21.40;;;10.00;;
35223;SDS011;21367;51.930;8.112;2022-10-26T01:23:55;20.08;;;10.65;;
35223;SDS011;21367;51.930;8.112;2022-10-26T01:29:28;21.45;;;10.25;;
35223;SDS011;21367;51.930;8.112;2022-10-26T01:34:58;16.48;;;7.95;;
35223;SDS011;21367;51.930;8.112;2022-10-26T01:40:10;19.42;;;9.50;;
35223;SDS011;21367;51.930;8.112;2022-10-26T01:45:22;22.08;;;10.00;;
35223;SDS011;21367;51.930;8.112;2022-10-26T01:50:30;18.88;;;8.80;;
35223;SDS011;21367;51.930;8.112;2022-10-26T01:55:45;28.38;;;10.10;;
35223;SDS011;21367;51.930;8.112;2022-10-26T02:00:52;20.08;;;8.30;;
35223;SDS011;21367;51.930;8.112;2022-10-26T02:06:08;17.80;;;9.10;;
35223;SDS011;21367;51.930;8.112;2022-10-26T02:11:22;29.88;;;10.73;;
35223;SDS011;21367;51.930;8.112;2022-10-26T02:16:36;25.15;;;7.90;;
35223;SDS011;21367;51.930;8.112;2022-10-26T02:21:47;18.05;;;8.00;;
35223;SDS011;21367;51.930;8.112;2022-10-26T02:26:56;21.23;;;9.02;;
35223;SDS011;21367;51.930;8.112;2022-10-26T02:32:04;39.47;;;23.45;;
35223;SDS011;21367;51.930;8.112;2022-10-26T02:37:12;32.57;;;15.67;;
35223;SDS011;21367;51.930;8.112;2022-10-26T02:42:20;21.95;;;7.95;;
35223;SDS011;21367;51.930;8.112;2022-10-26T02:47:26;19.27;;;6.43;;
35223;SDS011;21367;51.930;8.112;2022-10-26T02:52:34;18.13;;;5.95;;
35223;SDS011;21367;51.930;8.112;2022-10-26T02:57:46;12.55;;;6.32;;
35223;SDS011;21367;51.930;8.112;2022-10-26T03:02:54;18.58;;;6.32;;
35223;SDS011;21367;51.930;8.112;2022-10-26T03:08:05;11.15;;;6.65;;
35223;SDS011;21367;51.930;8.112;2022-10-26T03:13:09;15.55;;;6.80;;
35223;SDS011;21367;51.930;8.112;2022-10-26T03:18:14;22.30;;;7.95;;
35223;SDS011;21367;51.930;8.112;2022-10-26T03:23:21;14.02;;;6.88;;
35223;SDS011;21367;51.930;8.112;2022-10-26T03:28:24;16.08;;;7.03;;
35223;SDS011;21367;51.930;8.112;2022-10-26T03:33:28;17.42;;;7.18;;
35223;SDS011;21367;51.930;8.112;2022-10-26T03:38:35;15.63;;;6.28;;
35223;SDS011;21367;51.930;8.112;2022-10-26T03:43:39;26.02;;;7.00;;
35223;SDS011;21367;51.930;8.112;2022-10-26T03:48:42;23.30;;;6.93;;
35223;SDS011;21367;51.930;8.112;2022-10-26T03:53:49;14.63;;;6.43;;
35223;SDS011;21367;51.930;8.112;2022-10-26T03:58:53;14.45;;;7.78;;
35223;SDS011;21367;51.930;8.112;2022-10-26T04:03:57;24.65;;;15.55;;
35223;SDS011;21367;51.930;8.112;2022-10-26T04:09:03;36.08;;;17.75;;
35223;SDS011;21367;51.930;8.112;2022-10-26T04:14:07;43.92;;;24.15;;
35223;SDS011;21367;51.930;8.112;2022-10-26T04:19:11;36.85;;;19.70;;
35223;SDS011;21367;51.930;8.112;2022-10-26T04:24:18;28.85;;;9.43;;
35223;SDS011;21367;51.930;8.112;2022-10-26T04:29:22;20.10;;;8.68;;
35223;SDS011;21367;51.930;8.112;2022-10-26T04:34:26;21.52;;;7.78;;
35223;SDS011;21367;51.930;8.112;2022-10-26T04:39:32;18.38;;;7.55;;
35223;SDS011;21367;51.930;8.112;2022-10-26T04:49:40;17.83;;;7.10;;
35223;SDS011;21367;51.930;8.112;2022-10-26T04:54:46;20.27;;;6.90;;
35223;SDS011;21367;51.930;8.112;2022-10-26T04:59:50;17.05;;;7.53;;
35223;SDS011;21367;51.930;8.112;2022-10-26T05:04:54;19.63;;;7.10;;
35223;SDS011;21367;51.930;8.112;2022-10-26T05:10:01;19.55;;;7.38;;
35223;SDS011;21367;51.930;8.112;2022-10-26T05:15:05;17.42;;;7.05;;
35223;SDS011;21367;51.930;8.112;2022-10-26T05:20:11;17.10;;;6.88;;
35223;SDS011;21367;51.930;8.112;2022-10-26T05:25:18;23.30;;;7.05;;
35223;SDS011;21367;51.930;8.112;2022-10-26T05:30:22;16.70;;;6.85;;
35223;SDS011;21367;51.930;8.112;2022-10-26T05:35:25;23.92;;;6.88;;
35223;SDS011;21367;51.930;8.112;2022-10-26T05:40:32;26.35;;;6.68;;
35223;SDS011;21367;51.930;8.112;2022-10-26T05:45:37;17.70;;;7.45;;
35223;SDS011;21367;51.930;8.112;2022-10-26T05:50:41;17.27;;;7.60;;
35223;SDS011;21367;51.930;8.112;2022-10-26T05:55:48;23.80;;;8.48;;
35223;SDS011;21367;51.930;8.112;2022-10-26T06:01:00;23.42;;;9.70;;
35223;SDS011;21367;51.930;8.112;2022-10-26T06:06:14;22.25;;;9.50;;
35223;SDS011;21367;51.930;8.112;2022-10-26T06:11:21;23.83;;;9.70;;
35223;SDS011;21367;51.930;8.112;2022-10-26T06:16:28;28.30;;;10.32;;
35223;SDS011;21367;51.930;8.112;2022-10-26T06:21:46;18.27;;;9.38;;
35223;SDS011;21367;51.930;8.112;2022-10-26T06:27:02;20.98;;;8.88;;
35223;SDS011;21367;51.930;8.112;2022-10-26T06:32:15;28.02;;;9.07;;
35223;SDS011;21367;51.930;8.112;2022-10-26T06:37:20;23.73;;;9.63;;
35223;SDS011;21367;51.930;8.112;2022-10-26T06:42:27;17.77;;;9.50;;
35223;SDS011;21367;51.930;8.112;2022-10-26T06:47:35;34.08;;;10.27;;
35223;SDS011;21367;51.930;8.112;2022-10-26T06:52:44;23.15;;;10.77;;
35223;SDS011;21367;51.930;8.112;2022-10-26T06:58:00;20.80;;;11.13;;
35223;SDS011;21367;51.930;8.112;2022-10-26T07:03:05;23.63;;;10.82;;
35223;SDS011;21367;51.930;8.112;2022-10-26T07:08:09;32.50;;;12.98;;
35223;SDS011;21367;51.930;8.112;2022-10-26T07:13:16;28.95;;;11.80;;
35223;SDS011;21367;51.930;8.112;2022-10-26T07:18:20;25.63;;;11.20;;
35223;SDS011;21367;51.930;8.112;2022-10-26T07:23:23;20.38;;;11.60;;
35223;SDS011;21367;51.930;8.112;2022-10-26T07:28:30;25.92;;;12.43;;
35223;SDS011;21367;51.930;8.112;2022-10-26T07:33:36;29.20;;;13.27;;
35223;SDS011;21367;51.930;8.112;2022-10-26T07:38:41;37.92;;;21.80;;
35223;SDS011;21367;51.930;8.112;2022-10-26T07:43:47;30.08;;;13.00;;
35223;SDS011;21367;51.930;8.112;2022-10-26T07:48:51;34.83;;;12.10;;
35223;SDS011;21367;51.930;8.112;2022-10-26T07:53:56;22.15;;;11.75;;
35223;SDS011;21367;51.930;8.112;2022-10-26T07:59:03;30.92;;;12.55;;
35223;SDS011;21367;51.930;8.112;2022-10-26T08:09:10;28.98;;;13.45;;
35223;SDS011;21367;51.930;8.112;2022-10-26T08:14:17;37.60;;;12.38;;
35223;SDS011;21367;51.930;8.112;2022-10-26T08:19:21;29.52;;;11.73;;
35223;SDS011;21367;51.930;8.112;2022-10-26T08:24:24;29.00;;;11.27;;
35223;SDS011;21367;51.930;8.112;2022-10-26T08:29:31;44.58;;;12.35;;
35223;SDS011;21367;51.930;8.112;2022-10-26T08:34:35;28.75;;;13.02;;
35223;SDS011;21367;51.930;8.112;2022-10-26T08:39:39;28.08;;;12.45;;
35223;SDS011;21367;51.930;8.112;2022-10-26T08:44:47;27.45;;;12.55;;
35223;SDS011;21367;51.930;8.112;2022-10-26T08:49:58;30.23;;;11.32;;
35223;SDS011;21367;51.930;8.112;2022-10-26T08:55:06;24.42;;;10.15;;
35223;SDS011;21367;51.930;8.112;2022-10-26T09:00:21;21.10;;;9.85;;
35223;SDS011;21367;51.930;8.112;2022-10-26T09:05:30;22.23;;;8.75;;
35223;SDS011;21367;51.930;8.112;2022-10-26T09:10:43;14.48;;;7.10;;
35223;SDS011;21367;51.930;8.112;2022-10-26T09:16:01;25.48;;;7.00;;
35223;SDS011;21367;51.930;8.112;2022-10-26T09:21:12;16.45;;;7.30;;
35223;SDS011;21367;51.930;8.112;2022-10-26T09:26:35;22.30;;;6.70;;
35223;SDS011;21367;51.930;8.112;2022-10-26T09:31:44;16.13;;;6.22;;
35223;SDS011;21367;51.930;8.112;2022-10-26T09:36:52;16.23;;;5.25;;
35223;SDS011;21367;51.930;8.112;2022-10-26T09:41:57;10.35;;;5.13;;
35223;SDS011;21367;51.930;8.112;2022-10-26T09:47:09;11.88;;;5.45;;
35223;SDS011;21367;51.930;8.112;2022-10-26T09:52:21;13.10;;;5.43;;
35223;SDS011;21367;51.930;8.112;2022-10-26T09:57:25;17.55;;;5.22;;
35223;SDS011;21367;51.930;8.112;2022-10-26T10:02:37;15.05;;;4.60;;
35223;SDS011;21367;51.930;8.112;2022-10-26T10:07:43;15.90;;;4.90;;
35223;SDS011;21367;51.930;8.112;2022-10-26T10:12:48;16.00;;;4.43;;
35223;SDS011;21367;51.930;8.112;2022-10-26T10:17:56;14.60;;;4.97;;
35223;SDS011;21367;51.930;8.112;2022-10-26T10:23:02;18.05;;;4.03;;
35223;SDS011;21367;51.930;8.112;2022-10-26T10:28:18;16.30;;;4.53;;
35223;SDS011;21367;51.930;8.112;2022-10-26T10:33:33;15.73;;;4.32;;
35223;SDS011;21367;51.930;8.112;2022-10-26T10:38:39;14.13;;;3.00;;
35223;SDS011;21367;51.930;8.112;2022-10-26T10:48:59;15.13;;;2.90;;
35223;SDS011;21367;51.930;8.112;2022-10-26T10:54:05;8.93;;;2.00;;
35223;SDS011;21367;51.930;8.112;2022-10-26T10:59:26;13.27;;;2.70;;
35223;SDS011;21367;51.930;8.112;2022-10-26T11:04:48;12.27;;;1.77;;
35223;SDS011;21367;51.930;8.112;2022-10-26T11:10:02;11.60;;;1.95;;
35223;SDS011;21367;51.930;8.112;2022-10-26T11:15:09;14.03;;;1.47;;
35223;SDS011;21367;51.930;8.112;2022-10-26T11:20:22;6.63;;;1.65;;
35223;SDS011;21367;51.930;8.112;2022-10-26T11:25:30;13.30;;;1.73;;
35223;SDS011;21367;51.930;8.112;2022-10-26T11:30:39;13.07;;;1.50;;
35223;SDS011;21367;51.930;8.112;2022-10-26T11:35:54;6.55;;;1.40;;
35223;SDS011;21367;51.930;8.112;2022-10-26T11:41:04;8.45;;;1.52;;
35223;SDS011;21367;51.930;8.112;2022-10-26T11:46:14;5.25;;;1.40;;
35223;SDS011;21367;51.930;8.112;2022-10-26T11:51:32;13.65;;;1.83;;
35223;SDS011;21367;51.930;8.112;2022-10-26T11:56:40;8.73;;;1.90;;
35223;SDS011;21367;51.930;8.112;2022-10-26T12:01:49;16.15;;;2.30;;
35223;SDS011;21367;51.930;8.112;2022-10-26T12:06:59;9.02;;;2.22;;
35223;SDS011;21367;51.930;8.112;2022-10-26T12:12:06;11.57;;;2.30;;
35223;SDS011;21367;51.930;8.112;2022-10-26T12:17:17;13.32;;;1.88;;
35223;SDS011;21367;51.930;8.112;2022-10-26T12:22:30;9.05;;;1.60;;
35223;SDS011;21367;51.930;8.112;2022-10-26T12:27:48;6.28;;;1.60;;
35223;SDS011;21367;51.930;8.112;2022-10-26T12:32:55;5.32;;;1.70;;
35223;SDS011;21367;51.930;8.112;2022-10-26T12:43:48;9.45;;;2.00;;
35223;SDS011;21367;51.930;8.112;2022-10-26T12:48:52;10.20;;;1.98;;
35223;SDS011;21367;51.930;8.112;2022-10-26T12:54:03;9.60;;;1.60;;
35223;SDS011;21367;51.930;8.112;2022-10-26T12:59:20;12.88;;;1.90;;
35223;SDS011;21367;51.930;8.112;2022-10-26T13:10:19;6.28;;;1.63;;
35223;SDS011;21367;51.930;8.112;2022-10-26T13:15:25;9.43;;;2.00;;
35223;SDS011;21367;51.930;8.112;2022-10-26T13:20:31;11.77;;;2.67;;
35223;SDS011;21367;51.930;8.112;2022-10-26T13:25:39;18.27;;;1.90;;
35223;SDS011;21367;51.930;8.112;2022-10-26T13:30:46;8.30;;;1.90;;
35223;SDS011;21367;51.930;8.112;2022-10-26T13:35:50;9.32;;;2.60;;
35223;SDS011;21367;51.930;8.112;2022-10-26T13:41:03;15.05;;;2.53;;
35223;SDS011;21367;51.930;8.112;2022-10-26T13:46:12;17.10;;;2.40;;
35223;SDS011;21367;51.930;8.112;2022-10-26T13:51:31;12.68;;;2.47;;
35223;SDS011;21367;51.930;8.112;2022-10-26T13:56:52;7.70;;;2.22;;
35223;SDS011;21367;51.930;8.112;2022-10-26T14:02:05;11.63;;;2.40;;
35223;SDS011;21367;51.930;8.112;2022-10-26T14:07:19;11.38;;;2.30;;
35223;SDS011;21367;51.930;8.112;2022-10-26T14:12:28;15.93;;;2.67;;
35223;SDS011;21367;51.930;8.112;2022-10-26T14:17:32;8.55;;;1.85;;
35223;SDS011;21367;51.930;8.112;2022-10-26T14:22:37;8.93;;;2.03;;
35223;SDS011;21367;51.930;8.112;2022-10-26T14:27:43;19.27;;;2.85;;
35223;SDS011;21367;51.930;8.112;2022-10-26T14:32:47;11.30;;;2.42;;
35223;SDS011;21367;51.930;8.112;2022-10-26T14:37:53;14.65;;;2.33;;
35223;SDS011;21367;51.930;8.112;2022-10-26T14:43:03;19.05;;;2.40;;
35223;SDS011;21367;51.930;8.112;2022-10-26T14:48:14;13.73;;;2.53;;
35223;SDS011;21367;51.930;8.112;2022-10-26T14:53:27;10.13;;;2.30;;
35223;SDS011;21367;51.930;8.112;2022-10-26T14:58:37;13.40;;;2.13;;
35223;SDS011;21367;51.930;8.112;2022-10-26T15:03:41;9.63;;;2.35;;
35223;SDS011;21367;51.930;8.112;2022-10-26T15:08:47;8.43;;;2.00;;
35223;SDS011;21367;51.930;8.112;2022-10-26T15:14:00;10.25;;;2.25;;
35223;SDS011;21367;51.930;8.112;2022-10-26T15:19:06;10.45;;;2.33;;
35223;SDS011;21367;51.930;8.112;2022-10-26T15:24:13;11.90;;;2.40;;
35223;SDS011;21367;51.930;8.112;2022-10-26T15:35:14;21.05;;;5.63;;
35223;SDS011;21367;51.930;8.112;2022-10-26T15:40:35;21.03;;;7.37;;
35223;SDS011;21367;51.930;8.112;2022-10-26T15:45:47;10.18;;;3.53;;
35223;SDS011;21367;51.930;8.112;2022-10-26T15:50:51;11.57;;;2.70;;
35223;SDS011;21367;51.930;8.112;2022-10-26T15:55:56;15.48;;;2.53;;
35223;SDS011;21367;51.930;8.112;2022-10-26T16:01:04;8.00;;;2.55;;
35223;SDS011;21367;51.930;8.112;2022-10-26T16:06:08;6.40;;;3.50;;
35223;SDS011;21367;51.930;8.112;2022-10-26T16:11:19;9.70;;;3.47;;
35223;SDS011;21367;51.930;8.112;2022-10-26T16:16:25;13.70;;;3.53;;
35223;SDS011;21367;51.930;8.112;2022-10-26T16:21:29;23.80;;;6.78;;
35223;SDS011;21367;51.930;8.112;2022-10-26T16:26:33;15.15;;;3.72;;
35223;SDS011;21367;51.930;8.112;2022-10-26T16:31:39;11.00;;;4.00;;
35223;SDS011;21367;51.930;8.112;2022-10-26T16:36:43;12.30;;;3.90;;
35223;SDS011;21367;51.930;8.112;2022-10-26T16:41:47;15.23;;;3.95;;
35223;SDS011;21367;51.930;8.112;2022-10-26T16:46:55;13.88;;;4.05;;
35223;SDS011;21367;51.930;8.112;2022-10-26T16:51:58;12.25;;;4.10;;
35223;SDS011;21367;51.930;8.112;2022-10-26T16:57:04;8.77;;;4.82;;
35223;SDS011;21367;51.930;8.112;2022-10-26T17:02:10;13.68;;;4.65;;
35223;SDS011;21367;51.930;8.112;2022-10-26T17:07:16;12.88;;;4.88;;
35223;SDS011;21367;51.930;8.112;2022-10-26T17:12:19;19.58;;;5.90;;
35223;SDS011;21367;51.930;8.112;2022-10-26T17:17:26;11.38;;;5.32;;
35223;SDS011;21367;51.930;8.112;2022-10-26T17:22:30;27.90;;;11.80;;
35223;SDS011;21367;51.930;8.112;2022-10-26T17:27:34;76.57;;;28.63;;
35223;SDS011;21367;51.930;8.112;2022-10-26T17:32:40;37.33;;;17.67;;
35223;SDS011;21367;51.930;8.112;2022-10-26T17:37:44;28.55;;;10.60;;
35223;SDS011;21367;51.930;8.112;2022-10-26T17:42:48;28.65;;;12.10;;
35223;SDS011;21367;51.930;8.112;2022-10-26T17:47:55;32.45;;;10.82;;
35223;SDS011;21367;51.930;8.112;2022-10-26T17:52:59;24.40;;;11.57;;
35223;SDS011;21367;51.930;8.112;2022-10-26T17:58:05;28.58;;;11.95;;
35223;SDS011;21367;51.930;8.112;2022-10-26T18:03:12;23.30;;;12.50;;
35223;SDS011;21367;51.930;8.112;2022-10-26T18:08:16;29.25;;;14.50;;
35223;SDS011;21367;51.930;8.112;2022-10-26T18:13:20;32.58;;;13.77;;
35223;SDS011;21367;51.930;8.112;2022-10-26T18:18:27;25.33;;;13.10;;
35223;SDS011;21367;51.930;8.112;2022-10-26T18:23:30;22.98;;;11.82;;
35223;SDS011;21367;51.930;8.112;2022-10-26T18:28:34;20.80;;;10.32;;
35223;SDS011;21367;51.930;8.112;2022-10-26T18:33:41;18.83;;;9.02;;
35223;SDS011;21367;51.930;8.112;2022-10-26T18:38:46;18.48;;;8.20;;
35223;SDS011;21367;51.930;8.112;2022-10-26T18:43:50;24.95;;;10.73;;
35223;SDS011;21367;51.930;8.112;2022-10-26T18:49:00;19.83;;;6.53;;
35223;SDS011;21367;51.930;8.112;2022-10-26T18:54:05;15.20;;;5.00;;
35223;SDS011;21367;51.930;8.112;2022-10-26T18:59:09;15.27;;;4.10;;
35223;SDS011;21367;51.930;8.112;2022-10-26T19:04:16;8.90;;;3.38;;
35223;SDS011;21367;51.930;8.112;2022-10-26T19:09:21;27.83;;;10.52;;
35223;SDS011;21367;51.930;8.112;2022-10-26T19:14:25;46.90;;;17.92;;
35223;SDS011;21367;51.930;8.112;2022-10-26T19:19:31;19.83;;;4.82;;
35223;SDS011;21367;51.930;8.112;2022-10-26T19:24:35;11.35;;;3.72;;
35223;SDS011;21367;51.930;8.112;2022-10-26T19:29:39;13.60;;;4.50;;
35223;SDS011;21367;51.930;8.112;2022-10-26T19:34:45;14.45;;;4.32;;
35223;SDS011;21367;51.930;8.112;2022-10-26T19:39:49;19.05;;;4.57;;
35223;SDS011;21367;51.930;8.112;2022-10-26T19:44:53;12.95;;;5.15;;
35223;SDS011;21367;51.930;8.112;2022-10-26T19:50:00;14.90;;;6.30;;
35223;SDS011;21367;51.930;8.112;2022-10-26T19:55:07;18.13;;;7.70;;
35223;SDS011;21367;51.930;8.112;2022-10-26T20:00:11;27.67;;;13.45;;
35223;SDS011;21367;51.930;8.112;2022-10-26T20:05:19;21.48;;;12.10;;
35223;SDS011;21367;51.930;8.112;2022-10-26T20:10:23;18.77;;;6.43;;
35223;SDS011;21367;51.930;8.112;2022-10-26T20:15:28;12.53;;;6.17;;
35223;SDS011;21367;51.930;8.112;2022-10-26T20:20:35;14.95;;;6.22;;
35223;SDS011;21367;51.930;8.112;2022-10-26T20:25:43;11.82;;;6.25;;
35223;SDS011;21367;51.930;8.112;2022-10-26T20:30:48;13.57;;;5.32;;
35223;SDS011;21367;51.930;8.112;2022-10-26T20:35:58;14.20;;;4.50;;
35223;SDS011;21367;51.930;8.112;2022-10-26T20:41:03;9.85;;;4.38;;
35223;SDS011;21367;51.930;8.112;2022-10-26T20:46:09;14.10;;;4.88;;
35223;SDS011;21367;51.930;8.112;2022-10-26T20:51:17;13.48;;;5.53;;
35223;SDS011;21367;51.930;8.112;2022-10-26T20:56:24;14.30;;;4.93;;
35223;SDS011;21367;51.930;8.112;2022-10-26T21:01:30;23.77;;;4.30;;
35223;SDS011;21367;51.930;8.112;2022-10-26T21:06:40;11.85;;;5.20;;
35223;SDS011;21367;51.930;8.112;2022-10-26T21:11:44;8.82;;;4.55;;
35223;SDS011;21367;51.930;8.112;2022-10-26T21:16:47;8.82;;;4.35;;
35223;SDS011;21367;51.930;8.112;2022-10-26T21:21:54;9.98;;;4.47;;
35223;SDS011;21367;51.930;8.112;2022-10-26T21:26:58;11.70;;;4.47;;
35223;SDS011;21367;51.930;8.112;2022-10-26T21:32:03;12.10;;;4.60;;
35223;SDS011;21367;51.930;8.112;2022-10-26T21:37:10;11.38;;;4.90;;
35223;SDS011;21367;51.930;8.112;2022-10-26T21:42:13;16.27;;;5.07;;
35223;SDS011;21367;51.930;8.112;2022-10-26T21:47:18;13.68;;;5.10;;
35223;SDS011;21367;51.930;8.112;2022-10-26T21:52:24;9.82;;;4.40;;
35223;SDS011;21367;51.930;8.112;2022-10-26T21:57:28;14.10;;;4.38;;
35223;SDS011;21367;51.930;8.112;2022-10-26T22:02:31;9.88;;;3.95;;
35223;SDS011;21367;51.930;8.112;2022-10-26T22:07:38;13.50;;;4.57;;
35223;SDS011;21367;51.930;8.112;2022-10-26T22:12:42;9.48;;;4.40;;
35223;SDS011;21367;51.930;8.112;2022-10-26T22:17:46;18.42;;;4.18;;
35223;SDS011;21367;51.930;8.112;2022-10-26T22:22:53;14.27;;;4.68;;
35223;SDS011;21367;51.930;8.112;2022-10-26T22:27:56;14.90;;;5.25;;
35223;SDS011;21367;51.930;8.112;2022-10-26T22:33:00;23.35;;;7.78;;
35223;SDS011;21367;51.930;8.112;2022-10-26T22:38:07;36.55;;;9.43;;
35223;SDS011;21367;51.930;8.112;2022-10-26T22:43:11;38.78;;;10.18;;
35223;SDS011;21367;51.930;8.112;2022-10-26T22:48:15;30.17;;;9.30;;
35223;SDS011;21367;51.930;8.112;2022-10-26T22:53:22;24.83;;;8.80;;
35223;SDS011;21367;51.930;8.112;2022-10-26T22:58:26;22.77;;;7.95;;
35223;SDS011;21367;51.930;8.112;2022-10-26T23:03:31;28.50;;;7.45;;
35223;SDS011;21367;51.930;8.112;2022-10-26T23:08:37;20.63;;;6.40;;
35223;SDS011;21367;51.930;8.112;2022-10-26T23:13:42;18.15;;;6.97;;
35223;SDS011;21367;51.930;8.112;2022-10-26T23:18:46;12.93;;;5.88;;
35223;SDS011;21367;51.930;8.112;2022-10-26T23:23:55;10.73;;;5.43;;
35223;SDS011;21367;51.930;8.112;2022-10-26T23:28:59;18.33;;;5.68;;
35223;SDS011;21367;51.930;8.112;2022-10-26T23:34:03;17.15;;;5.75;;
35223;SDS011;21367;51.930;8.112;2022-10-26T23:39:09;17.48;;;5.45;;
35223;SDS011;21367;51.930;8.112;2022-10-26T23:44:13;14.77;;;5.95;;
35223;SDS011;21367;51.930;8.112;2022-10-26T23:49:17;14.63;;;6.10;;
35223;SDS011;21367;51.930;8.112;2022-10-26T23:54:24;12.13;;;5.28;;
35223;SDS011;21367;51.930;8.112;2022-10-26T23:59:28;14.13;;;5.22;;
